Terminal Aerodrome Forecast
Issued by NWS Wakefield, VA

Home | Current Version | Previous Version | Text Only | Print | Product List | Glossary On
Versions: 1 2 3 4 5 6 7 8 9 10 11 12 13 14 15 16 17 18 19 20
000
FTUS41 KAKQ 122300
TAFRIC
TAF
KRIC 122320Z 1300/1324 16007KT P6SM SCT250
     FM131000 19004KT 4SM BR FEW100 BKN250
     FM131400 22013KT P6SM BKN250=

USA.gov is the U.S. government's official web portal to all federal, state and local government web resources and services.